Time;durP1;ratioP1;P1;durP2;ratioP2;P2;SDS_P1;SDS_P2;PMS_P1;PMS_P2;Temp;Humidity;BMP_temperature;BMP_pressure;BME280_temperature;BME280_humidity;BME280_pressure;Samples;Min_cycle;Max_cycle;Signal;HPM_P1;HPM_P2
2021/03/18 00:01:32;;;;;;;5.57;3.50;;;;;;;;;;5020823;28;20718;-76
2021/03/18 00:03:57;;;;;;;3.13;2.83;;;;;;;;;;5019639;28;20476;-77
2021/03/18 00:06:23;;;;;;;5.20;3.53;;;;;;;;;;5037719;28;20222;-76
2021/03/18 00:08:50;;;;;;;4.10;3.70;;;;;;;;;;5037962;28;20646;-78
2021/03/18 00:11:17;;;;;;;3.87;3.57;;;;;;;;;;5037298;28;20491;-76
2021/03/18 00:13:44;;;;;;;4.33;3.87;;;;;;;;;;5003765;28;20460;-76
2021/03/18 00:16:10;;;;;;;5.33;4.67;;;;;;;;;;5020197;28;20506;-75
2021/03/18 00:18:45;;;;;;;4.57;4.17;;;;;;;;;;5037604;28;20460;-76
2021/03/18 00:21:11;;;;;;;3.83;3.53;;;;;;;;;;5003398;28;20759;-75
2021/03/18 00:23:36;;;;;;;5.30;3.93;;;;;;;;;;5020044;28;20905;-76
2021/03/18 00:26:02;;;;;;;4.90;4.40;;;;;;;;;;5003240;28;20214;-76
2021/03/18 00:28:28;;;;;;;5.53;3.53;;;;;;;;;;5020229;28;20234;-75
2021/03/18 00:30:54;;;;;;;5.77;3.93;;;;;;;;;;5003743;28;20822;-75
2021/03/18 00:33:20;;;;;;;4.47;4.03;;;;;;;;;;5036957;28;20213;-76
2021/03/18 00:35:45;;;;;;;5.10;4.23;;;;;;;;;;5003739;28;20960;-75
2021/03/18 00:38:11;;;;;;;4.90;4.10;;;;;;;;;;5019491;28;20210;-75
2021/03/18 00:40:43;;;;;;;4.20;3.80;;;;;;;;;;5036934;28;20587;-75
2021/03/18 00:43:12;;;;;;;5.00;4.13;;;;;;;;;;5002623;28;20543;-75
2021/03/18 00:45:39;;;;;;;4.20;3.80;;;;;;;;;;5019618;28;20456;-75
2021/03/18 00:48:06;;;;;;;4.73;4.20;;;;;;;;;;5036562;28;20485;-75
2021/03/18 00:50:41;;;;;;;6.90;4.10;;;;;;;;;;5037086;28;20468;-75
2021/03/18 00:53:07;;;;;;;4.70;3.77;;;;;;;;;;5019252;28;20478;-75
2021/03/18 00:55:33;;;;;;;3.93;3.50;;;;;;;;;;5019851;28;20491;-76
2021/03/18 00:57:58;;;;;;;4.80;3.67;;;;;;;;;;5003285;28;20966;-75
2021/03/18 01:00:25;;;;;;;6.00;3.83;;;;;;;;;;5019298;28;20209;-75
2021/03/18 01:02:51;;;;;;;4.27;3.87;;;;;;;;;;4999706;28;20217;-75
2021/03/18 01:05:40;;;;;;;4.70;4.20;;;;;;;;;;4999312;28;20468;-75
2021/03/18 01:08:06;;;;;;;4.23;3.80;;;;;;;;;;4999640;28;20545;-75
2021/03/18 01:10:38;;;;;;;4.40;3.73;;;;;;;;;;4999924;28;20462;-75
2021/03/18 01:13:04;;;;;;;4.40;4.00;;;;;;;;;;4999694;28;20458;-75
2021/03/18 01:15:29;;;;;;;6.73;4.77;;;;;;;;;;4983809;28;20468;-75
2021/03/18 01:17:55;;;;;;;5.60;4.27;;;;;;;;;;5016935;28;20312;-75
2021/03/18 01:20:20;;;;;;;6.10;4.90;;;;;;;;;;4999555;28;20610;-75
2021/03/18 01:22:46;;;;;;;5.70;5.10;;;;;;;;;;4984026;28;20264;-75
2021/03/18 01:25:11;;;;;;;6.17;5.37;;;;;;;;;;5000368;28;20247;-75
2021/03/18 01:27:37;;;;;;;6.40;4.87;;;;;;;;;;5020252;28;20203;-76
2021/03/18 01:30:12;;;;;;;6.53;5.90;;;;;;;;;;4984879;28;20221;-75
2021/03/18 01:32:38;;;;;;;7.03;6.27;;;;;;;;;;5000361;28;20729;-74
2021/03/18 01:35:14;;;;;;;10.37;6.93;;;;;;;;;;4983975;28;20801;-75
2021/03/18 01:37:40;;;;;;;7.30;6.50;;;;;;;;;;4999388;28;20464;-74
2021/03/18 01:40:07;;;;;;;9.03;7.30;;;;;;;;;;4999758;28;20473;-74
2021/03/18 01:42:32;;;;;;;8.60;7.03;;;;;;;;;;4999083;28;20598;-74
2021/03/18 01:44:58;;;;;;;7.37;6.63;;;;;;;;;;4986874;28;20469;-74
2021/03/18 01:47:23;;;;;;;8.90;6.50;;;;;;;;;;4996863;28;20582;-75
2021/03/18 01:49:49;;;;;;;6.40;5.80;;;;;;;;;;4983239;28;20254;-75
2021/03/18 01:52:14;;;;;;;6.60;6.00;;;;;;;;;;4983280;28;20214;-75
2021/03/18 01:54:40;;;;;;;6.93;5.90;;;;;;;;;;4999145;28;20262;-75
2021/03/18 01:57:05;;;;;;;6.20;4.60;;;;;;;;;;5003417;28;20488;-75
2021/03/18 01:59:30;;;;;;;6.10;5.50;;;;;;;;;;5002811;28;20225;-75
2021/03/18 02:01:56;;;;;;;9.50;6.10;;;;;;;;;;4987011;28;20227;-74
2021/03/18 02:04:21;;;;;;;6.40;5.80;;;;;;;;;;5019833;28;20737;-75
2021/03/18 02:06:46;;;;;;;7.50;6.80;;;;;;;;;;5022921;28;20206;-75
2021/03/18 02:09:11;;;;;;;6.20;5.40;;;;;;;;;;5022906;28;20233;-74
2021/03/18 02:11:37;;;;;;;5.53;4.90;;;;;;;;;;5039660;28;20228;-74
2021/03/18 02:14:02;;;;;;;10.10;5.20;;;;;;;;;;5039956;28;20300;-74
2021/03/18 02:16:31;;;;;;;6.10;5.50;;;;;;;;;;5005774;28;20584;-75
2021/03/18 02:19:09;;;;;;;5.00;4.50;;;;;;;;;;5022426;28;20225;-75
2021/03/18 02:21:37;;;;;;;5.63;5.07;;;;;;;;;;5022182;28;20788;-75
2021/03/18 02:24:34;;;;;;;4.57;3.97;;;;;;;;;;5039546;28;20551;-75
2021/03/18 02:27:37;;;;;;;5.37;4.53;;;;;;;;;;5039542;28;20497;-75
2021/03/18 02:30:38;;;;;;;6.00;4.90;;;;;;;;;;5021823;28;20447;-75
2021/03/18 02:33:26;;;;;;;5.63;4.47;;;;;;;;;;5021465;28;20441;-75
2021/03/18 02:35:58;;;;;;;6.73;5.37;;;;;;;;;;5021996;28;20457;-75
2021/03/18 02:38:30;;;;;;;6.20;5.00;;;;;;;;;;5022187;28;20877;-74
2021/03/18 02:41:09;;;;;;;6.83;4.63;;;;;;;;;;5021950;28;20734;-74
2021/03/18 02:43:47;;;;;;;7.10;5.07;;;;;;;;;;5022175;28;20476;-74
2021/03/18 02:46:13;;;;;;;5.67;5.00;;;;;;;;;;5021451;28;20452;-74
2021/03/18 02:48:39;;;;;;;7.10;5.90;;;;;;;;;;5021856;28;20738;-75
2021/03/18 02:51:06;;;;;;;6.00;5.37;;;;;;;;;;5021606;28;20225;-74
2021/03/18 02:53:32;;;;;;;10.00;5.67;;;;;;;;;;5021850;28;20272;-74
2021/03/18 02:56:03;;;;;;;8.50;5.50;;;;;;;;;;5021637;28;20453;-74
2021/03/18 02:58:31;;;;;;;6.23;5.63;;;;;;;;;;5005633;28;20466;-74
2021/03/18 03:00:58;;;;;;;5.53;4.97;;;;;;;;;;5021637;28;20483;-74
2021/03/18 03:03:23;;;;;;;6.60;5.60;;;;;;;;;;5021895;28;20479;-74
2021/03/18 03:05:54;;;;;;;8.80;4.70;;;;;;;;;;5021847;28;20475;-74
2021/03/18 03:08:21;;;;;;;6.97;5.40;;;;;;;;;;5020889;28;20532;-74
2021/03/18 03:10:48;;;;;;;5.93;4.83;;;;;;;;;;5039286;28;20455;-74
2021/03/18 03:13:14;;;;;;;6.57;4.80;;;;;;;;;;5021059;28;20465;-73
2021/03/18 03:15:39;;;;;;;6.77;5.77;;;;;;;;;;5021592;28;20790;-74
2021/03/18 03:18:10;;;;;;;5.90;5.30;;;;;;;;;;5021477;28;20481;-74
2021/03/18 03:20:36;;;;;;;6.97;5.07;;;;;;;;;;5005094;28;20216;-74
2021/03/18 03:23:04;;;;;;;7.87;4.10;;;;;;;;;;5020973;28;20456;-74
2021/03/18 03:25:29;;;;;;;7.60;4.83;;;;;;;;;;5021432;28;20540;-73
2021/03/18 03:27:55;;;;;;;6.77;5.10;;;;;;;;;;5021514;28;20543;-73
2021/03/18 03:30:22;;;;;;;6.57;4.80;;;;;;;;;;5004635;28;20216;-74
2021/03/18 03:32:47;;;;;;;4.90;4.50;;;;;;;;;;5004933;28;20296;-74
2021/03/18 03:35:14;;;;;;;6.80;5.50;;;;;;;;;;5021028;28;20907;-74
2021/03/18 03:37:41;;;;;;;7.77;5.37;;;;;;;;;;5021348;28;20240;-73
2021/03/18 03:40:08;;;;;;;6.10;5.50;;;;;;;;;;5021029;28;20474;-74
2021/03/18 03:42:33;;;;;;;7.50;4.67;;;;;;;;;;5038523;28;20481;-74
2021/03/18 03:44:59;;;;;;;5.43;4.87;;;;;;;;;;5020752;28;20471;-74
2021/03/18 03:47:24;;;;;;;5.20;4.53;;;;;;;;;;5038388;28;20224;-74
2021/03/18 03:49:49;;;;;;;5.60;5.10;;;;;;;;;;5038583;28;20224;-74
2021/03/18 03:52:39;;;;;;;7.60;5.47;;;;;;;;;;5020759;28;20260;-75
2021/03/18 03:55:14;;;;;;;6.40;5.27;;;;;;;;;;5021241;28;20233;-74
2021/03/18 03:57:58;;;;;;;6.73;5.00;;;;;;;;;;5005567;28;20481;-74
2021/03/18 04:00:24;;;;;;;5.63;4.90;;;;;;;;;;5039108;28;20509;-74
2021/03/18 04:02:51;;;;;;;6.10;5.40;;;;;;;;;;5022929;28;20461;-76
2021/03/18 04:05:17;;;;;;;8.77;5.20;;;;;;;;;;5005238;28;21094;-75
2021/03/18 04:07:43;;;;;;;6.90;4.63;;;;;;;;;;5006387;28;20457;-75
2021/03/18 04:10:09;;;;;;;5.60;5.00;;;;;;;;;;5004089;28;20499;-73
2021/03/18 04:12:37;;;;;;;6.80;6.20;;;;;;;;;;5021089;28;20449;-75
2021/03/18 04:15:11;;;;;;;6.20;5.60;;;;;;;;;;5003971;28;20466;-74
2021/03/18 04:17:40;;;;;;;7.50;5.50;;;;;;;;;;5020581;28;20463;-74
2021/03/18 04:20:08;;;;;;;5.70;5.07;;;;;;;;;;5019208;28;20460;-74
2021/03/18 04:22:34;;;;;;;6.97;5.97;;;;;;;;;;5020288;28;20483;-74
2021/03/18 04:25:01;;;;;;;8.97;6.47;;;;;;;;;;5021349;28;20471;-75
2021/03/18 04:27:28;;;;;;;7.67;6.10;;;;;;;;;;5004320;28;20457;-75
2021/03/18 04:29:54;;;;;;;8.13;6.00;;;;;;;;;;5021512;28;20456;-75
2021/03/18 04:32:20;;;;;;;7.80;6.50;;;;;;;;;;5003725;28;20488;-73
2021/03/18 04:34:46;;;;;;;8.17;6.83;;;;;;;;;;5038087;28;20564;-74
2021/03/18 04:37:12;;;;;;;6.17;5.47;;;;;;;;;;5004582;28;20461;-74
2021/03/18 04:39:39;;;;;;;6.90;5.83;;;;;;;;;;5038916;28;20248;-74
2021/03/18 04:42:06;;;;;;;8.00;6.97;;;;;;;;;;5038970;28;20437;-74
2021/03/18 04:44:35;;;;;;;9.13;6.20;;;;;;;;;;5056633;28;20447;-75
2021/03/18 04:47:00;;;;;;;10.97;8.20;;;;;;;;;;5040035;28;20469;-73
2021/03/18 04:49:26;;;;;;;9.87;7.90;;;;;;;;;;5022595;28;20432;-74
2021/03/18 04:51:52;;;;;;;9.53;7.67;;;;;;;;;;5022838;28;20224;-74
2021/03/18 04:54:18;;;;;;;12.93;7.30;;;;;;;;;;5038954;28;20465;-75
2021/03/18 04:56:45;;;;;;;10.43;7.97;;;;;;;;;;5039667;28;20909;-74
2021/03/18 04:59:13;;;;;;;9.97;7.67;;;;;;;;;;5024981;28;20614;-74
2021/03/18 05:01:39;;;;;;;10.80;8.23;;;;;;;;;;5038818;28;20464;-74
2021/03/18 05:04:05;;;;;;;8.17;7.20;;;;;;;;;;5038342;28;20483;-74
2021/03/18 05:06:31;;;;;;;8.13;7.27;;;;;;;;;;5004293;28;20506;-74
2021/03/18 05:09:00;;;;;;;12.27;8.10;;;;;;;;;;5020699;28;20495;-74
2021/03/18 05:11:26;;;;;;;11.97;8.70;;;;;;;;;;5003885;28;20456;-74
2021/03/18 05:13:51;;;;;;;15.23;8.50;;;;;;;;;;5003987;28;20522;-74
2021/03/18 05:16:17;;;;;;;13.53;8.97;;;;;;;;;;5003418;28;20948;-74
2021/03/18 05:18:43;;;;;;;11.77;9.23;;;;;;;;;;5020148;28;20359;-74
2021/03/18 05:21:08;;;;;;;11.73;10.07;;;;;;;;;;5037036;28;20550;-75
2021/03/18 05:23:34;;;;;;;10.30;8.30;;;;;;;;;;5019556;28;20226;-74
2021/03/18 05:26:00;;;;;;;14.90;9.37;;;;;;;;;;5019945;28;20235;-74
2021/03/18 05:28:25;;;;;;;11.23;9.37;;;;;;;;;;5003291;28;20222;-73
2021/03/18 05:30:50;;;;;;;9.50;7.80;;;;;;;;;;5022123;28;20945;-73
2021/03/18 05:33:16;;;;;;;9.60;8.57;;;;;;;;;;5023427;28;20221;-75
2021/03/18 05:35:43;;;;;;;14.07;9.00;;;;;;;;;;5022766;28;20225;-76
2021/03/18 05:38:10;;;;;;;10.33;9.20;;;;;;;;;;5003082;28;20221;-74
2021/03/18 05:40:36;;;;;;;10.20;7.77;;;;;;;;;;4995409;28;20523;-74
2021/03/18 05:43:03;;;;;;;11.60;9.20;;;;;;;;;;5040989;28;20514;-75
2021/03/18 05:45:28;;;;;;;10.47;8.50;;;;;;;;;;5040487;28;20472;-76
2021/03/18 05:47:54;;;;;;;10.60;9.13;;;;;;;;;;5023875;28;20718;-76
2021/03/18 05:50:21;;;;;;;11.33;9.07;;;;;;;;;;5007584;28;20229;-75
2021/03/18 05:52:48;;;;;;;12.70;9.27;;;;;;;;;;5008991;28;20734;-75
2021/03/18 05:55:14;;;;;;;11.50;9.03;;;;;;;;;;5023209;28;20555;-77
2021/03/18 05:57:40;;;;;;;11.17;8.20;;;;;;;;;;5023343;28;20543;-76
2021/03/18 06:00:10;;;;;;;12.60;8.67;;;;;;;;;;5006905;28;20940;-75
2021/03/18 06:02:36;;;;;;;11.67;9.30;;;;;;;;;;5022806;28;20293;-74
2021/03/18 06:05:07;;;;;;;10.40;9.27;;;;;;;;;;5039976;28;20467;-75
2021/03/18 06:07:37;;;;;;;10.33;9.10;;;;;;;;;;5039995;28;20210;-75
2021/03/18 06:10:04;;;;;;;11.60;9.70;;;;;;;;;;5022819;28;20523;-75
2021/03/18 06:12:30;;;;;;;13.03;9.47;;;;;;;;;;5039541;28;20467;-75
2021/03/18 06:14:55;;;;;;;13.97;8.57;;;;;;;;;;5023036;28;20465;-75
2021/03/18 06:17:22;;;;;;;12.03;9.13;;;;;;;;;;5022520;28;20599;-76
2021/03/18 06:19:47;;;;;;;11.73;8.80;;;;;;;;;;5022739;28;20300;-74
2021/03/18 06:22:12;;;;;;;13.60;10.23;;;;;;;;;;5039538;28;20556;-75
2021/03/18 06:24:47;;;;;;;10.90;9.20;;;;;;;;;;5022644;28;20225;-74
2021/03/18 06:27:22;;;;;;;12.40;10.97;;;;;;;;;;5022181;28;20229;-74
2021/03/18 06:29:47;;;;;;;12.27;10.37;;;;;;;;;;5005750;28;20464;-75
2021/03/18 06:32:13;;;;;;;13.17;10.77;;;;;;;;;;5022629;28;20944;-75
2021/03/18 06:34:51;;;;;;;11.80;9.43;;;;;;;;;;5039204;28;20218;-76
2021/03/18 06:37:33;;;;;;;10.30;9.30;;;;;;;;;;5023341;28;20545;-75
2021/03/18 06:40:19;;;;;;;21.50;11.77;;;;;;;;;;5022409;28;20466;-74
2021/03/18 06:42:58;;;;;;;16.30;10.60;;;;;;;;;;5004712;28;20453;-75
2021/03/18 06:45:31;;;;;;;12.20;8.63;;;;;;;;;;5005400;28;20536;-76
2021/03/18 06:48:02;;;;;;;15.97;10.33;;;;;;;;;;5005912;28;20757;-75
2021/03/18 06:50:36;;;;;;;12.77;9.73;;;;;;;;;;5021827;28;20943;-75
2021/03/18 06:53:15;;;;;;;13.80;8.93;;;;;;;;;;5005461;28;20506;-75
2021/03/18 06:55:40;;;;;;;12.00;8.37;;;;;;;;;;5005346;28;20447;-75
2021/03/18 06:58:28;;;;;;;8.97;8.07;;;;;;;;;;5005636;28;20464;-75
2021/03/18 07:00:56;;;;;;;10.13;9.07;;;;;;;;;;5021315;28;20221;-75
2021/03/18 07:03:26;;;;;;;12.40;8.80;;;;;;;;;;5021587;28;20501;-75
2021/03/18 07:05:52;;;;;;;11.77;7.00;;;;;;;;;;5039272;28;20929;-75
2021/03/18 07:08:22;;;;;;;9.37;7.30;;;;;;;;;;5005551;28;20540;-75
2021/03/18 07:10:48;;;;;;;10.80;9.30;;;;;;;;;;4997523;28;20215;-75
2021/03/18 07:13:15;;;;;;;9.97;8.13;;;;;;;;;;5001930;28;20536;-75
2021/03/18 07:15:40;;;;;;;9.57;8.27;;;;;;;;;;5001199;28;20602;-76
2021/03/18 07:18:06;;;;;;;10.80;8.00;;;;;;;;;;5001729;28;20504;-75
2021/03/18 07:20:31;;;;;;;9.20;7.67;;;;;;;;;;5001443;28;20225;-77
2021/03/18 07:22:57;;;;;;;15.60;10.20;;;;;;;;;;5001874;28;20221;-74
2021/03/18 07:25:27;;;;;;;10.80;8.07;;;;;;;;;;5001759;28;20301;-75
2021/03/18 07:27:55;;;;;;;14.30;10.87;;;;;;;;;;5017262;28;20296;-74
2021/03/18 07:30:28;;;;;;;11.60;9.43;;;;;;;;;;4985487;28;20536;-76
2021/03/18 07:32:54;;;;;;;13.93;9.73;;;;;;;;;;4985039;28;20460;-74
2021/03/18 07:35:19;;;;;;;10.30;8.20;;;;;;;;;;5001840;28;20466;-76
2021/03/18 07:37:45;;;;;;;10.17;8.50;;;;;;;;;;5010180;28;20891;-75
2021/03/18 07:40:10;;;;;;;11.40;10.20;;;;;;;;;;5021340;28;20221;-75
2021/03/18 07:42:36;;;;;;;11.30;9.23;;;;;;;;;;5020616;28;20220;-75
2021/03/18 07:45:03;;;;;;;12.53;9.77;;;;;;;;;;5020629;28;20217;-74
2021/03/18 07:47:28;;;;;;;14.50;10.40;;;;;;;;;;5004743;28;20749;-74
2021/03/18 07:49:54;;;;;;;10.73;8.67;;;;;;;;;;5020350;28;20466;-75
2021/03/18 07:52:22;;;;;;;19.50;9.83;;;;;;;;;;5020894;28;20241;-75
2021/03/18 07:54:50;;;;;;;14.00;10.20;;;;;;;;;;5019492;28;20546;-74
2021/03/18 07:57:16;;;;;;;10.80;9.60;;;;;;;;;;5020814;28;20712;-74
2021/03/18 07:59:42;;;;;;;15.27;9.90;;;;;;;;;;5031834;28;20537;-74
2021/03/18 08:02:19;;;;;;;10.90;8.90;;;;;;;;;;5040595;28;20541;-75
2021/03/18 08:04:46;;;;;;;13.00;9.87;;;;;;;;;;5020003;28;20469;-74
2021/03/18 08:07:12;;;;;;;10.67;7.83;;;;;;;;;;5004529;28;20534;-75
2021/03/18 08:09:40;;;;;;;11.70;9.23;;;;;;;;;;5017391;28;20464;-74
2021/03/18 08:13:03;;;;;;;10.93;8.60;;;;;;;;;;5018520;28;20234;-77
2021/03/18 08:15:40;;;;;;;11.17;9.53;;;;;;;;;;5011257;28;20468;-73
2021/03/18 08:18:15;;;;;;;11.37;9.00;;;;;;;;;;5006679;28;20514;-73
2021/03/18 08:20:40;;;;;;;11.03;9.10;;;;;;;;;;5036982;28;20474;-74
2021/03/18 08:25:54;;;;;;;13.10;9.37;;;;;;;;;;5037324;28;20284;-74
2021/03/18 08:28:43;;;;;;;13.93;8.97;;;;;;;;;;5003678;28;20484;-72
2021/03/18 08:31:12;;;;;;;13.80;10.60;;;;;;;;;;5019244;28;20464;-76
2021/03/18 08:33:48;;;;;;;12.80;9.90;;;;;;;;;;5003564;28;20527;-75
2021/03/18 08:36:36;;;;;;;12.40;10.70;;;;;;;;;;5003411;28;20907;-76
2021/03/18 08:39:11;;;;;;;11.80;9.97;;;;;;;;;;5019696;28;20473;-74
2021/03/18 08:41:41;;;;;;;9.93;8.77;;;;;;;;;;5019635;28;20458;-76
2021/03/18 08:44:23;;;;;;;11.50;10.27;;;;;;;;;;5036804;28;20564;-74
2021/03/18 08:47:00;;;;;;;11.13;10.00;;;;;;;;;;4999600;28;20484;-75
2021/03/18 08:49:44;;;;;;;11.93;9.60;;;;;;;;;;5017146;28;21238;-76
2021/03/18 08:52:12;;;;;;;12.03;9.30;;;;;;;;;;5016871;28;20466;-77
2021/03/18 08:54:40;;;;;;;12.67;9.70;;;;;;;;;;5017137;28;20544;-75
2021/03/18 08:57:21;;;;;;;11.80;10.17;;;;;;;;;;5016819;28;20486;-76
2021/03/18 08:59:48;;;;;;;13.23;11.93;;;;;;;;;;5028605;28;20472;-76
2021/03/18 09:02:15;;;;;;;17.27;13.00;;;;;;;;;;4997112;28;20554;-76
2021/03/18 09:04:46;;;;;;;22.23;16.90;;;;;;;;;;5027246;28;20499;-76
2021/03/18 09:07:13;;;;;;;13.60;11.80;;;;;;;;;;5019274;28;20750;-76
2021/03/18 09:09:40;;;;;;;12.10;8.90;;;;;;;;;;5025578;28;20535;-76
2021/03/18 09:12:07;;;;;;;10.20;8.30;;;;;;;;;;5021080;28;20472;-76
2021/03/18 09:14:32;;;;;;;12.17;8.27;;;;;;;;;;5028085;28;20711;-75
2021/03/18 09:17:11;;;;;;;10.40;8.17;;;;;;;;;;5013178;28;20428;-75
2021/03/18 09:19:38;;;;;;;11.70;10.17;;;;;;;;;;5014234;28;20214;-75
2021/03/18 09:22:04;;;;;;;11.73;10.53;;;;;;;;;;5015982;28;20905;-76
2021/03/18 09:24:47;;;;;;;8.70;7.40;;;;;;;;;;5018863;28;20460;-75
2021/03/18 09:27:14;;;;;;;13.27;7.90;;;;;;;;;;5018941;28;20476;-74
2021/03/18 09:29:46;;;;;;;11.03;9.43;;;;;;;;;;5031519;28;20465;-74
2021/03/18 09:32:13;;;;;;;12.40;9.83;;;;;;;;;;5005381;28;20460;-74
2021/03/18 09:34:43;;;;;;;11.43;9.20;;;;;;;;;;5018929;28;20453;-78
2021/03/18 09:37:12;;;;;;;11.67;10.07;;;;;;;;;;5030161;28;20522;-76
2021/03/18 09:39:50;;;;;;;14.00;9.83;;;;;;;;;;4998970;28;20844;-76
2021/03/18 09:42:16;;;;;;;15.33;10.93;;;;;;;;;;4999298;28;20760;-74
2021/03/18 09:44:41;;;;;;;10.90;9.80;;;;;;;;;;5008141;28;20469;-77
2021/03/18 09:47:07;;;;;;;13.30;10.27;;;;;;;;;;5019285;28;20458;-76
2021/03/18 09:49:35;;;;;;;9.67;8.17;;;;;;;;;;5036076;28;20234;-75
2021/03/18 09:52:09;;;;;;;10.40;8.07;;;;;;;;;;5018596;28;20217;-75
2021/03/18 09:54:35;;;;;;;9.43;8.00;;;;;;;;;;5034362;28;20489;-75
2021/03/18 09:57:02;;;;;;;11.20;9.50;;;;;;;;;;5028543;28;20456;-75
2021/03/18 09:59:27;;;;;;;9.90;8.07;;;;;;;;;;5017623;28;20527;-75
2021/03/18 10:01:53;;;;;;;11.13;7.63;;;;;;;;;;5019127;28;20477;-74
2021/03/18 10:04:21;;;;;;;11.20;8.70;;;;;;;;;;5035089;28;20248;-76
2021/03/18 10:06:56;;;;;;;10.10;8.20;;;;;;;;;;5018557;28;20222;-74
2021/03/18 10:09:28;;;;;;;10.33;8.30;;;;;;;;;;5000842;28;20517;-74
2021/03/18 10:11:54;;;;;;;11.23;8.20;;;;;;;;;;5018459;28;20473;-76
2021/03/18 10:14:23;;;;;;;8.57;7.70;;;;;;;;;;5018326;28;20884;-74
2021/03/18 10:16:51;;;;;;;8.20;7.40;;;;;;;;;;5036792;28;20237;-74
2021/03/18 10:19:18;;;;;;;11.87;8.60;;;;;;;;;;5020546;28;20460;-74
2021/03/18 10:21:45;;;;;;;9.10;7.10;;;;;;;;;;5008219;28;20518;-74
2021/03/18 10:24:12;;;;;;;10.37;7.30;;;;;;;;;;5017777;28;20927;-75
2021/03/18 10:26:38;;;;;;;10.50;7.37;;;;;;;;;;5039689;28;20452;-75
2021/03/18 10:29:05;;;;;;;9.40;7.30;;;;;;;;;;5020834;28;20529;-75
2021/03/18 10:31:32;;;;;;;9.27;6.57;;;;;;;;;;5002789;28;20228;-75
2021/03/18 10:33:59;;;;;;;7.57;5.60;;;;;;;;;;5024610;28;20461;-75
2021/03/18 10:36:35;;;;;;;7.87;6.57;;;;;;;;;;5006726;28;20457;-74
2021/03/18 10:39:03;;;;;;;7.80;5.63;;;;;;;;;;5002679;28;20465;-76
2021/03/18 10:41:28;;;;;;;7.17;6.20;;;;;;;;;;5019127;28;20751;-75
2021/03/18 10:43:54;;;;;;;8.20;5.40;;;;;;;;;;5001233;28;20527;-75
2021/03/18 10:46:38;;;;;;;9.13;6.23;;;;;;;;;;5022253;28;20218;-74
2021/03/18 10:49:06;;;;;;;7.13;5.83;;;;;;;;;;5021641;28;20577;-74
2021/03/18 10:51:42;;;;;;;7.40;5.53;;;;;;;;;;5039442;28;20465;-75
2021/03/18 10:54:07;;;;;;;7.63;6.87;;;;;;;;;;5038380;28;20498;-74
2021/03/18 10:56:36;;;;;;;7.50;6.07;;;;;;;;;;5022220;28;20461;-76
2021/03/18 10:59:16;;;;;;;8.00;5.60;;;;;;;;;;5040367;28;20235;-76
2021/03/18 11:01:42;;;;;;;9.17;5.70;;;;;;;;;;5003915;28;20760;-74
2021/03/18 11:04:08;;;;;;;6.47;5.87;;;;;;;;;;5020774;28;20470;-74
2021/03/18 11:06:45;;;;;;;6.37;5.50;;;;;;;;;;5004653;28;20224;-75
2021/03/18 11:09:11;;;;;;;7.07;6.37;;;;;;;;;;5022068;28;20459;-75
2021/03/18 11:11:37;;;;;;;8.53;5.73;;;;;;;;;;5021867;28;20478;-74
2021/03/18 11:14:12;;;;;;;6.03;5.47;;;;;;;;;;5016404;28;20896;-75
2021/03/18 11:16:38;;;;;;;7.43;6.60;;;;;;;;;;5001625;28;20220;-75
2021/03/18 11:19:05;;;;;;;8.57;6.00;;;;;;;;;;5001953;28;20540;-75
2021/03/18 11:21:34;;;;;;;9.47;7.50;;;;;;;;;;5018725;28;20506;-75
2021/03/18 11:24:07;;;;;;;8.37;7.57;;;;;;;;;;5018691;28;20470;-75
2021/03/18 11:26:33;;;;;;;7.83;6.53;;;;;;;;;;5001400;28;20472;-75
2021/03/18 11:29:09;;;;;;;9.30;7.20;;;;;;;;;;5024211;28;20465;-75
2021/03/18 11:31:37;;;;;;;7.23;6.50;;;;;;;;;;5017978;28;20464;-75
2021/03/18 11:34:26;;;;;;;12.30;8.03;;;;;;;;;;5018764;28;20514;-75
2021/03/18 11:36:53;;;;;;;11.10;7.03;;;;;;;;;;5024993;28;20522;-75
2021/03/18 11:39:20;;;;;;;10.00;8.37;;;;;;;;;;5020658;28;20499;-75
2021/03/18 11:41:46;;;;;;;9.00;6.93;;;;;;;;;;5021321;28;20450;-77
2021/03/18 11:44:14;;;;;;;7.53;6.20;;;;;;;;;;5038337;28;20446;-75
2021/03/18 11:46:39;;;;;;;10.77;7.53;;;;;;;;;;5041324;28;20222;-75
2021/03/18 11:49:05;;;;;;;9.00;7.30;;;;;;;;;;5020915;28;20470;-76
2021/03/18 11:51:30;;;;;;;8.30;6.07;;;;;;;;;;5038742;28;20243;-75
2021/03/18 11:53:56;;;;;;;12.27;6.40;;;;;;;;;;5037811;28;20313;-74
2021/03/18 11:56:21;;;;;;;9.23;5.57;;;;;;;;;;5020253;28;20641;-74
2021/03/18 11:58:46;;;;;;;6.60;5.70;;;;;;;;;;5018036;28;20641;-74
2021/03/18 12:01:14;;;;;;;7.37;5.73;;;;;;;;;;5018409;28;20603;-73
2021/03/18 12:03:39;;;;;;;6.20;5.60;;;;;;;;;;5020847;28;20595;-75
2021/03/18 12:06:05;;;;;;;7.80;5.80;;;;;;;;;;5031890;28;20475;-75
2021/03/18 12:08:30;;;;;;;6.03;4.60;;;;;;;;;;5038028;28;20225;-76
2021/03/18 12:10:56;;;;;;;5.77;4.50;;;;;;;;;;5030492;28;20645;-77
2021/03/18 12:13:21;;;;;;;8.30;5.30;;;;;;;;;;5008125;28;20316;-75
2021/03/18 12:15:47;;;;;;;5.50;5.00;;;;;;;;;;4985801;28;20226;-75
2021/03/18 12:18:12;;;;;;;6.13;4.87;;;;;;;;;;5000935;28;20236;-75
2021/03/18 12:20:37;;;;;;;5.93;5.33;;;;;;;;;;4985580;28;20223;-75
2021/03/18 12:23:03;;;;;;;6.37;5.20;;;;;;;;;;5000727;28;20251;-76
2021/03/18 12:25:29;;;;;;;6.47;5.10;;;;;;;;;;5001828;28;20247;-75
2021/03/18 12:27:54;;;;;;;6.90;5.87;;;;;;;;;;5002325;28;20214;-76
2021/03/18 12:30:22;;;;;;;4.37;3.97;;;;;;;;;;5001158;28;20505;-76
2021/03/18 12:32:48;;;;;;;7.23;4.80;;;;;;;;;;4984710;28;20222;-76
2021/03/18 12:35:15;;;;;;;5.50;4.40;;;;;;;;;;4983830;28;20445;-76
2021/03/18 12:37:41;;;;;;;5.80;5.30;;;;;;;;;;5026373;28;20742;-76
2021/03/18 12:40:07;;;;;;;6.37;4.97;;;;;;;;;;5036269;28;20461;-76
2021/03/18 12:42:33;;;;;;;5.80;5.30;;;;;;;;;;5020117;28;20236;-76
2021/03/18 12:44:58;;;;;;;4.40;4.00;;;;;;;;;;4999988;28;21018;-77
2021/03/18 12:47:25;;;;;;;5.23;4.10;;;;;;;;;;4999893;28;20225;-75
2021/03/18 12:49:50;;;;;;;5.33;4.20;;;;;;;;;;5000172;28;20220;-76
2021/03/18 12:52:15;;;;;;;11.23;5.70;;;;;;;;;;4999904;28;20469;-76
2021/03/18 12:54:41;;;;;;;5.07;4.27;;;;;;;;;;5029348;28;20232;-76
2021/03/18 12:57:07;;;;;;;5.23;4.33;;;;;;;;;;5035830;28;20275;-76
2021/03/18 12:59:33;;;;;;;6.17;4.30;;;;;;;;;;5019683;28;20534;-77
2021/03/18 13:01:58;;;;;;;6.23;4.20;;;;;;;;;;5036887;28;20450;-75
2021/03/18 13:04:23;;;;;;;4.83;4.20;;;;;;;;;;5047507;28;20225;-75
2021/03/18 13:06:52;;;;;;;5.77;3.70;;;;;;;;;;5019354;28;20381;-76
2021/03/18 13:09:17;;;;;;;4.00;3.30;;;;;;;;;;5036358;28;20219;-75
2021/03/18 13:11:42;;;;;;;3.40;3.00;;;;;;;;;;5036905;28;20467;-76
2021/03/18 13:14:08;;;;;;;5.20;3.90;;;;;;;;;;5018836;28;20239;-74
2021/03/18 13:16:34;;;;;;;3.80;3.23;;;;;;;;;;5036893;28;20224;-75
2021/03/18 13:18:59;;;;;;;5.27;3.73;;;;;;;;;;5037111;28;20223;-75
2021/03/18 13:21:25;;;;;;;5.53;4.00;;;;;;;;;;5036004;28;20878;-76
2021/03/18 13:23:51;;;;;;;4.40;4.00;;;;;;;;;;5002830;28;20225;-76
2021/03/18 13:26:16;;;;;;;4.70;4.20;;;;;;;;;;5002601;28;20630;-74
2021/03/18 13:28:42;;;;;;;34.97;19.10;;;;;;;;;;5036503;28;20228;-75
2021/03/18 13:31:07;;;;;;;85.67;36.17;;;;;;;;;;5019281;28;20219;-75
2021/03/18 13:33:33;;;;;;;81.07;35.93;;;;;;;;;;5018996;28;20536;-75
2021/03/18 13:35:58;;;;;;;10.47;7.07;;;;;;;;;;5019278;28;20502;-75
2021/03/18 13:38:24;;;;;;;15.57;9.50;;;;;;;;;;5002325;28;20244;-75
2021/03/18 13:40:50;;;;;;;10.53;6.37;;;;;;;;;;5003064;28;20300;-75
2021/03/18 13:43:16;;;;;;;10.07;7.37;;;;;;;;;;5018826;28;20523;-75
2021/03/18 13:45:43;;;;;;;7.80;5.67;;;;;;;;;;5019605;28;20447;-75
2021/03/18 13:48:11;;;;;;;7.50;3.47;;;;;;;;;;5019370;28;20225;-75
2021/03/18 13:50:39;;;;;;;4.97;4.10;;;;;;;;;;5036345;28;20445;-75
2021/03/18 13:53:05;;;;;;;5.07;3.97;;;;;;;;;;5040196;28;20479;-75
2021/03/18 13:55:31;;;;;;;4.40;3.40;;;;;;;;;;5040171;28;20457;-75
2021/03/18 13:57:57;;;;;;;3.43;3.13;;;;;;;;;;5023587;28;20454;-75
2021/03/18 14:00:23;;;;;;;4.77;3.70;;;;;;;;;;5040394;28;20266;-74
2021/03/18 14:02:48;;;;;;;6.00;3.03;;;;;;;;;;5042687;28;20426;-75
2021/03/18 14:05:14;;;;;;;2.97;2.47;;;;;;;;;;5048719;28;20459;-75
2021/03/18 14:07:39;;;;;;;3.10;2.60;;;;;;;;;;5023359;28;20225;-75
2021/03/18 14:10:07;;;;;;;5.23;2.53;;;;;;;;;;5023156;28;20232;-75
2021/03/18 14:12:32;;;;;;;3.00;2.40;;;;;;;;;;5039376;28;20216;-75
2021/03/18 14:14:57;;;;;;;3.37;2.40;;;;;;;;;;5039521;28;20446;-74
2021/03/18 14:17:23;;;;;;;2.50;2.00;;;;;;;;;;5038263;28;20502;-75
2021/03/18 14:19:48;;;;;;;1.37;1.27;;;;;;;;;;5024619;28;20242;-76
2021/03/18 14:22:13;;;;;;;3.43;1.87;;;;;;;;;;5044128;28;20220;-77
2021/03/18 14:24:39;;;;;;;49.37;34.23;;;;;;;;;;5026050;28;20252;-73
2021/03/18 14:27:04;;;;;;;3.90;2.30;;;;;;;;;;5043363;28;20295;-77
2021/03/18 14:29:29;;;;;;;3.20;1.97;;;;;;;;;;5012413;28;20221;-80
2021/03/18 14:31:55;;;;;;;2.60;2.07;;;;;;;;;;5036586;28;20275;-78
2021/03/18 14:34:20;;;;;;;3.57;2.47;;;;;;;;;;5002788;28;20217;-77
2021/03/18 14:36:46;;;;;;;6.80;2.60;;;;;;;;;;5019971;28;20238;-78
2021/03/18 14:39:11;;;;;;;2.20;1.90;;;;;;;;;;5007613;28;20219;-75
2021/03/18 14:41:37;;;;;;;3.70;1.80;;;;;;;;;;5037762;28;20749;-76
2021/03/18 14:44:02;;;;;;;5.63;1.90;;;;;;;;;;5030835;28;20233;-74
2021/03/18 14:46:28;;;;;;;3.00;2.37;;;;;;;;;;5038677;28;20234;-74